createdAt,value
2018-02-12T00:02:35.146Z,93897.06
2018-02-12T00:17:38.080Z,93902.75
2018-02-12T00:32:35.449Z,93900.29
2018-02-12T00:47:34.444Z,93903.80
2018-02-12T01:02:36.964Z,93906.11
2018-02-12T01:17:34.882Z,93904.84
2018-02-12T01:32:34.842Z,93905.62
2018-02-12T01:47:41.083Z,93907.41
2018-02-12T02:02:38.718Z,93918.69
2018-02-12T02:17:37.447Z,93925.83
2018-02-12T02:32:39.979Z,93928.03
2018-02-12T02:47:38.872Z,93931.42
2018-02-12T03:02:34.392Z,93935.17
2018-02-12T03:17:35.335Z,93938.95
2018-02-12T03:32:35.191Z,93935.05
2018-02-12T03:47:36.026Z,93930.89
2018-02-12T04:02:37.130Z,93930.52
2018-02-12T04:17:34.589Z,93935.28
2018-02-12T04:32:34.547Z,93940.22
2018-02-12T04:47:35.401Z,93932.59
2018-02-12T05:02:37.335Z,93944.23
2018-02-12T05:17:34.814Z,93953.30
2018-02-12T05:32:36.719Z,93977.02
2018-02-12T05:47:34.690Z,93989.27
2018-02-12T06:02:34.544Z,94003.17
2018-02-12T06:17:34.484Z,94013.16
2018-02-12T06:32:36.984Z,94024.22
2018-02-12T06:47:36.851Z,94033.21
2018-02-12T07:02:34.870Z,94035.83
2018-02-12T07:17:40.310Z,94050.38
2018-02-12T07:32:36.662Z,94046.50
2018-02-12T07:47:37.768Z,94042.08
2018-02-12T08:02:35.110Z,94053.23
2018-02-12T08:17:36.528Z,94056.72
2018-02-12T08:32:34.539Z,94070.50
2018-02-12T08:47:38.900Z,94059.41
2018-02-12T10:32:34.426Z,94047.48
2018-02-12T11:02:34.286Z,94041.23
2018-02-12T11:32:37.134Z,94031.02
2018-02-12T12:17:34.501Z,94019.20
2018-02-12T12:32:34.414Z,94020.14
2018-02-12T13:02:35.190Z,94002.75
2018-02-12T13:17:36.896Z,94008.58
2018-02-12T13:32:34.639Z,94007.80
2018-02-12T13:47:36.524Z,94014.66
2018-02-12T15:02:34.730Z,94044.41
2018-02-12T15:17:34.607Z,94045.81
2018-02-12T15:32:35.094Z,94059.41
2018-02-12T15:47:35.046Z,94069.13
2018-02-12T16:02:36.970Z,94071.86
2018-02-12T16:17:34.957Z,94083.84
2018-02-12T16:32:36.817Z,94084.64
2018-02-12T16:47:37.282Z,94087.50
2018-02-12T17:02:35.214Z,94106.86
2018-02-12T17:17:34.639Z,94109.08
2018-02-12T17:32:38.660Z,94112.48
2018-02-12T19:17:38.190Z,94151.29
2018-02-12T19:32:41.012Z,94162.05
2018-02-12T19:47:42.434Z,94161.00
2018-02-12T20:02:51.481Z,94172.30
2018-02-12T20:47:35.770Z,94185.59
2018-02-12T21:02:35.554Z,94204.96
2018-02-12T21:17:36.502Z,94207.42
2018-02-12T21:47:37.325Z,94209.87
2018-02-12T22:02:36.970Z,94215.40
2018-02-12T22:17:38.439Z,94213.20
2018-02-12T22:32:35.803Z,94230.08
2018-02-12T22:47:37.526Z,94241.76
2018-02-12T23:02:37.063Z,94233.89
2018-02-12T23:17:34.958Z,94245.33
2018-02-12T23:32:37.876Z,94238.19
2018-02-12T23:47:36.076Z,94242.44
